createdAt,value
2022-09-15T00:00:30.170Z,99071.73
2022-09-15T00:03:17.518Z,99056.47
2022-09-15T00:05:44.479Z,99061.95
2022-09-15T00:08:12.729Z,99050.61
2022-09-15T00:10:50.221Z,99047.55
2022-09-15T00:13:16.923Z,99038.66
2022-09-15T00:15:43.895Z,99034.77
2022-09-15T00:18:10.758Z,99027.52
2022-09-15T00:20:42.616Z,99026.90
2022-09-15T00:23:10.910Z,99027.96
2022-09-15T00:25:45.924Z,99023.52
2022-09-15T00:28:14.310Z,99016.88
2022-09-15T00:30:46.734Z,99027.51
2022-09-15T00:33:15.232Z,99039.77
2022-09-15T00:35:44.693Z,99045.92
2022-09-15T00:38:13.277Z,99045.38
2022-09-15T00:40:47.585Z,99044.34
2022-09-15T00:43:16.584Z,99043.27
2022-09-15T00:45:44.424Z,99044.83
2022-09-15T00:48:20.157Z,99043.86
2022-09-15T00:50:55.159Z,99037.11
2022-09-15T00:53:24.810Z,99030.81
2022-09-15T00:55:52.595Z,99021.18
2022-09-15T00:58:22.263Z,99017.23
2022-09-15T01:00:56.088Z,99007.31
2022-09-15T01:03:23.457Z,99004.70
2022-09-15T01:05:55.814Z,99001.09
2022-09-15T01:08:36.354Z,98994.95
2022-09-15T01:11:03.295Z,98988.19
2022-09-15T01:13:30.174Z,98983.70
2022-09-15T01:16:28.776Z,98986.86
2022-09-15T01:19:05.321Z,98994.29
2022-09-15T01:21:43.771Z,98995.34
2022-09-15T01:24:39.283Z,98988.18
2022-09-15T01:27:41.725Z,98974.21
2022-09-15T01:30:11.276Z,98960.65
2022-09-15T01:33:10.517Z,98950.08
2022-09-15T01:35:55.842Z,98945.57
2022-09-15T01:38:34.733Z,98938.62
2022-09-15T01:41:10.140Z,98940.50
2022-09-15T01:43:43.506Z,98940.30
2022-09-15T01:46:14.004Z,98942.93
2022-09-15T01:48:42.878Z,98948.61
2022-09-15T01:51:09.849Z,98954.19
2022-09-15T01:53:37.062Z,98950.16
2022-09-15T01:56:07.977Z,98947.17
2022-09-15T01:58:37.438Z,98948.20
2022-09-15T02:01:19.436Z,98954.33
2022-09-15T02:03:55.982Z,98954.31
2022-09-15T02:06:33.251Z,98954.42
2022-09-15T02:09:07.169Z,98940.45
2022-09-15T02:11:35.460Z,98927.45
2022-09-15T02:14:10.860Z,98920.48
2022-09-15T02:16:40.730Z,98915.48
2022-09-15T02:19:35.724Z,98919.33
2022-09-15T02:22:30.288Z,98927.79
2022-09-15T02:24:58.878Z,98926.27
2022-09-15T02:27:29.592Z,98919.51
2022-09-15T02:30:02.691Z,98921.73
2022-09-15T02:32:31.015Z,98918.89
2022-09-15T02:35:04.232Z,98920.42
2022-09-15T02:37:30.994Z,98927.67
2022-09-15T02:39:59.386Z,98922.14
2022-09-15T02:42:31.809Z,98915.05
2022-09-15T02:45:00.217Z,98913.84
2022-09-15T02:47:28.171Z,98906.33
2022-09-15T02:49:55.313Z,98898.96
2022-09-15T02:52:22.056Z,98891.16
2022-09-15T02:54:49.865Z,98886.85
2022-09-15T02:57:16.699Z,98887.59
2022-09-15T03:00:01.900Z,98888.40
2022-09-15T03:02:29.271Z,98883.16
2022-09-15T03:04:55.990Z,98882.12
2022-09-15T03:07:24.363Z,98882.11
2022-09-15T03:09:51.152Z,98875.10
2022-09-15T03:12:17.846Z,98875.36
2022-09-15T03:14:46.426Z,98870.54
2022-09-15T03:17:13.141Z,98881.05
2022-09-15T03:19:39.832Z,98891.23
2022-09-15T03:22:06.593Z,98883.61
2022-09-15T03:24:33.295Z,98887.27
2022-09-15T03:27:00.430Z,98881.61
2022-09-15T03:29:27.101Z,98878.55
2022-09-15T03:31:53.989Z,98875.89
2022-09-15T03:34:20.745Z,98873.13
2022-09-15T03:36:47.448Z,98868.16
2022-09-15T03:39:14.518Z,98860.30
2022-09-15T03:41:41.232Z,98847.63
2022-09-15T03:44:07.925Z,98847.30
2022-09-15T03:46:35.227Z,98858.45
2022-09-15T03:49:02.097Z,98859.92
2022-09-15T03:51:28.761Z,98868.64
2022-09-15T03:53:55.922Z,98870.52
2022-09-15T03:56:30.873Z,98872.90
2022-09-15T03:58:59.036Z,98874.65
2022-09-15T04:01:25.935Z,98880.77
2022-09-15T04:03:52.772Z,98877.63
2022-09-15T04:06:21.751Z,98873.48
2022-09-15T04:08:50.019Z,98873.41
2022-09-15T04:11:19.055Z,98868.63
2022-09-15T04:13:46.017Z,98867.94
2022-09-15T04:16:16.070Z,98869.48
2022-09-15T04:18:43.688Z,98878.36
2022-09-15T04:21:13.589Z,98872.26
2022-09-15T04:23:40.912Z,98867.79
2022-09-15T04:26:30.689Z,98863.08
2022-09-15T04:29:02.999Z,98868.73
2022-09-15T04:31:32.046Z,98869.31
2022-09-15T04:33:58.912Z,98867.71
2022-09-15T04:36:27.761Z,98872.09
2022-09-15T04:38:55.725Z,98869.45
2022-09-15T04:41:23.126Z,98861.80
2022-09-15T04:43:50.118Z,98853.95
2022-09-15T04:46:17.974Z,98847.23
2022-09-15T04:48:45.543Z,98849.15
2022-09-15T04:51:15.833Z,98851.62
2022-09-15T04:53:43.728Z,98850.40
2022-09-15T04:56:13.176Z,98850.80
2022-09-15T04:58:48.067Z,98853.77
2022-09-15T05:01:18.462Z,98854.33
2022-09-15T05:03:46.317Z,98852.10
2022-09-15T05:06:15.861Z,98845.56
2022-09-15T05:08:43.264Z,98843.25
2022-09-15T05:11:12.236Z,98837.36
2022-09-15T05:13:40.176Z,98839.68
2022-09-15T05:16:08.367Z,98833.41
2022-09-15T05:18:35.532Z,98830.17
2022-09-15T05:21:03.950Z,98825.95
2022-09-15T05:23:32.632Z,98821.38
2022-09-15T05:26:01.866Z,98817.57
2022-09-15T05:28:29.412Z,98811.13
2022-09-15T05:30:56.467Z,98809.65
2022-09-15T05:33:23.950Z,98804.42
2022-09-15T05:35:59.222Z,98804.09
2022-09-15T05:38:28.771Z,98808.02
2022-09-15T05:41:02.832Z,98812.53
2022-09-15T05:43:33.680Z,98809.83
2022-09-15T05:46:01.165Z,98805.73
2022-09-15T05:48:28.501Z,98806.63
2022-09-15T05:50:56.388Z,98805.58
2022-09-15T05:53:24.370Z,98794.90
2022-09-15T05:56:02.718Z,98785.29
2022-09-15T05:58:30.399Z,98778.52
2022-09-15T06:01:04.798Z,98781.23
2022-09-15T06:03:31.620Z,98782.46
2022-09-15T06:05:59.974Z,98780.30
2022-09-15T06:08:34.713Z,98773.91
2022-09-15T06:11:15.000Z,98766.63
2022-09-15T06:13:42.265Z,98763.96
2022-09-15T06:16:27.333Z,98759.35
2022-09-15T06:18:54.253Z,98754.35
2022-09-15T06:21:28.042Z,98751.30
2022-09-15T06:23:56.837Z,98749.28
2022-09-15T06:26:24.637Z,98750.73
2022-09-15T06:28:54.125Z,98747.08
2022-09-15T06:31:22.382Z,98751.17
2022-09-15T06:33:51.640Z,98752.52
2022-09-15T06:36:20.771Z,98756.02
2022-09-15T06:38:48.564Z,98759.31
2022-09-15T06:41:15.395Z,98758.64
2022-09-15T06:43:42.367Z,98760.83
2022-09-15T06:46:11.647Z,98765.24
2022-09-15T06:48:39.565Z,98768.06
2022-09-15T06:51:08.742Z,98766.91
2022-09-15T06:53:37.535Z,98765.27
2022-09-15T06:56:07.235Z,98757.42
2022-09-15T06:58:35.457Z,98757.73
2022-09-15T07:01:13.082Z,98758.34
2022-09-15T07:03:43.428Z,98756.02
2022-09-15T07:06:14.326Z,98755.70
2022-09-15T07:08:41.262Z,98756.46
2022-09-15T07:11:09.534Z,98752.05
2022-09-15T07:13:36.944Z,98750.33
2022-09-15T07:16:06.814Z,98748.94
2022-09-15T07:18:37.568Z,98753.99
2022-09-15T07:21:10.144Z,98750.69
2022-09-15T07:23:37.159Z,98748.73
2022-09-15T07:26:11.459Z,98754.84
2022-09-15T07:28:43.247Z,98760.38
2022-09-15T07:31:12.852Z,98763.05
2022-09-15T07:33:39.683Z,98770.04
2022-09-15T07:36:08.455Z,98772.62
2022-09-15T07:38:39.246Z,98774.74
2022-09-15T07:41:12.513Z,98775.27
2022-09-15T07:43:39.795Z,98773.61
2022-09-15T07:46:06.874Z,98772.33
2022-09-15T07:48:33.660Z,98772.42
2022-09-15T07:51:00.442Z,98777.31
2022-09-15T07:53:29.024Z,98776.71
2022-09-15T07:55:56.380Z,98774.74
2022-09-15T07:58:24.400Z,98775.77
2022-09-15T08:00:51.592Z,98771.77
2022-09-15T08:03:18.401Z,98771.52
2022-09-15T08:05:45.990Z,98772.38
2022-09-15T08:08:13.770Z,98771.15
2022-09-15T08:10:41.574Z,98774.29
2022-09-15T08:13:08.413Z,98784.36
2022-09-15T08:15:37.133Z,98789.17
2022-09-15T08:18:04.903Z,98789.84
2022-09-15T08:20:32.205Z,98789.89
2022-09-15T08:22:59.137Z,98788.90
2022-09-15T08:25:25.933Z,98782.18
2022-09-15T08:27:54.130Z,98779.95
2022-09-15T08:30:21.364Z,98778.55
2022-09-15T08:32:49.876Z,98777.50
2022-09-15T08:35:17.347Z,98774.17
2022-09-15T08:37:44.873Z,98770.57
2022-09-15T08:40:32.376Z,98770.30
2022-09-15T08:43:05.696Z,98771.77
2022-09-15T08:45:46.474Z,98775.23
2022-09-15T08:48:16.676Z,98767.73
2022-09-15T08:50:48.494Z,98767.86
2022-09-15T08:53:20.807Z,98775.28
2022-09-15T08:55:51.918Z,98778.30
2022-09-15T08:58:22.288Z,98769.79
2022-09-15T09:00:57.227Z,98772.48
2022-09-15T09:03:54.449Z,98772.86
2022-09-15T09:06:33.076Z,98778.96
2022-09-15T09:09:36.597Z,98785.31
2022-09-15T09:12:18.976Z,98788.39
2022-09-15T09:14:48.666Z,98792.14
2022-09-15T09:17:29.179Z,98786.86
2022-09-15T09:20:28.775Z,98783.75
2022-09-15T09:23:00.082Z,98789.18
2022-09-15T09:25:28.181Z,98780.25
2022-09-15T09:27:57.921Z,98779.25
2022-09-15T09:30:29.169Z,98776.53
2022-09-15T09:33:25.738Z,98778.58
2022-09-15T09:35:53.097Z,98770.87
2022-09-15T09:38:30.167Z,98770.77
2022-09-15T09:41:01.906Z,98768.39
2022-09-15T09:43:31.018Z,98770.16
2022-09-15T09:45:58.794Z,98770.80
2022-09-15T09:48:28.140Z,98771.89
2022-09-15T09:50:55.870Z,98778.46
2022-09-15T09:53:25.872Z,98782.54
2022-09-15T09:55:54.684Z,98783.50
2022-09-15T09:58:24.645Z,98777.36
2022-09-15T10:00:52.448Z,98765.20
2022-09-15T10:03:26.223Z,98762.41
2022-09-15T10:06:03.225Z,98767.12
2022-09-15T10:08:29.829Z,98761.82
2022-09-15T10:11:03.909Z,98760.71
2022-09-15T10:13:30.751Z,98752.63
2022-09-15T10:16:01.759Z,98751.05
2022-09-15T10:18:38.329Z,98747.42
2022-09-15T10:21:09.265Z,98743.19
2022-09-15T10:23:36.723Z,98743.52
2022-09-15T10:26:15.422Z,98741.02
2022-09-15T10:28:43.551Z,98746.90
2022-09-15T10:31:13.044Z,98747.52
2022-09-15T10:33:47.354Z,98745.56
2022-09-15T10:36:18.295Z,98741.81
2022-09-15T10:38:47.825Z,98743.95
2022-09-15T10:41:22.976Z,98741.30
2022-09-15T10:44:17.488Z,98743.99
2022-09-15T10:47:16.110Z,98745.33
2022-09-15T10:50:10.953Z,98742.60
2022-09-15T10:52:49.865Z,98745.19
2022-09-15T10:55:42.163Z,98742.92
2022-09-15T10:58:47.882Z,98738.20
2022-09-15T11:01:30.008Z,98732.02
2022-09-15T11:04:38.182Z,98726.73
2022-09-15T11:07:13.465Z,98727.29
2022-09-15T11:09:57.127Z,98729.06
2022-09-15T11:12:35.968Z,98732.70
2022-09-15T11:15:29.758Z,98732.70
2022-09-15T11:18:20.942Z,98725.16
2022-09-15T11:21:03.020Z,98734.48
2022-09-15T11:23:49.399Z,98737.50
2022-09-15T11:26:22.219Z,98741.01
2022-09-15T11:28:55.640Z,98740.69
2022-09-15T11:31:27.419Z,98737.73
2022-09-15T11:34:13.123Z,98739.45
2022-09-15T11:36:54.530Z,98731.17
2022-09-15T11:39:31.003Z,98727.52
2022-09-15T11:42:32.080Z,98723.91
2022-09-15T11:45:01.022Z,98727.74
2022-09-15T11:47:33.504Z,98730.68
2022-09-15T11:50:17.909Z,98733.81
2022-09-15T11:52:51.702Z,98737.09
2022-09-15T11:55:42.427Z,98739.58
2022-09-15T11:58:10.339Z,98749.92
2022-09-15T12:00:44.417Z,98762.38
2022-09-15T12:03:35.511Z,98750.90
2022-09-15T12:06:14.739Z,98753.79
2022-09-15T12:09:00.594Z,98757.58
2022-09-15T12:11:31.293Z,98753.80
2022-09-15T12:13:59.608Z,98758.71
2022-09-15T12:16:27.641Z,98757.84
2022-09-15T12:19:16.874Z,98760.48
2022-09-15T12:22:01.481Z,98752.51
2022-09-15T12:24:52.574Z,98747.66
2022-09-15T12:27:20.508Z,98746.83
2022-09-15T12:29:57.496Z,98747.25
2022-09-15T12:32:28.626Z,98745.63
2022-09-15T12:35:00.956Z,98750.36
2022-09-15T12:37:48.571Z,98748.48
2022-09-15T12:40:32.607Z,98752.24
2022-09-15T12:43:12.308Z,98757.81
2022-09-15T12:45:42.768Z,98764.80
2022-09-15T12:48:20.057Z,98769.16
2022-09-15T12:50:58.200Z,98769.59
2022-09-15T12:53:37.079Z,98764.29
2022-09-15T12:56:11.205Z,98759.16
2022-09-15T12:58:45.513Z,98762.27
2022-09-15T13:01:18.683Z,98760.73
2022-09-15T13:03:45.790Z,98753.18
2022-09-15T13:06:34.419Z,98752.15
2022-09-15T13:09:05.544Z,98753.39
2022-09-15T13:11:37.954Z,98751.42
2022-09-15T13:14:07.772Z,98752.10
2022-09-15T13:16:43.167Z,98751.60
2022-09-15T13:19:19.192Z,98750.66
2022-09-15T13:22:04.530Z,98748.64
2022-09-15T13:25:01.436Z,98755.49
2022-09-15T13:27:34.053Z,98767.49
2022-09-15T13:30:09.664Z,98775.90
2022-09-15T13:32:46.060Z,98773.73
2022-09-15T13:35:31.086Z,98770.91
2022-09-15T13:38:35.445Z,98776.45
2022-09-15T13:41:36.673Z,98776.05
2022-09-15T13:44:22.694Z,98779.74
2022-09-15T13:47:17.887Z,98780.06
2022-09-15T13:49:55.384Z,98778.77
2022-09-15T13:52:39.864Z,98777.41
2022-09-15T13:55:18.840Z,98777.71
2022-09-15T14:00:55.041Z,98782.45
2022-09-15T14:03:36.620Z,98780.16
2022-09-15T14:06:15.687Z,98780.60
2022-09-15T14:08:45.488Z,98776.72
2022-09-15T14:11:15.230Z,98775.52
2022-09-15T14:13:48.519Z,98774.10
2022-09-15T14:16:28.802Z,98769.21
2022-09-15T14:18:57.988Z,98766.34
2022-09-15T14:21:28.819Z,98762.52
2022-09-15T14:24:03.998Z,98759.48
2022-09-15T14:26:35.108Z,98755.30
2022-09-15T14:29:06.657Z,98730.17
2022-09-15T14:31:40.428Z,98755.76
2022-09-15T14:34:23.852Z,98756.98
2022-09-15T14:37:05.315Z,98752.61
2022-09-15T14:39:33.116Z,98760.84
2022-09-15T14:42:21.096Z,98761.57
2022-09-15T14:47:39.561Z,98759.99
2022-09-15T14:50:20.704Z,98755.73
2022-09-15T14:53:03.907Z,98751.62
2022-09-15T14:55:58.744Z,98753.61
2022-09-15T14:58:34.396Z,98758.66
2022-09-15T15:01:03.865Z,98752.20
2022-09-15T15:03:52.651Z,98751.25
2022-09-15T15:06:30.050Z,98758.03
2022-09-15T15:09:03.334Z,98752.63
2022-09-15T15:11:32.692Z,98751.59
2022-09-15T15:13:59.984Z,98753.23
2022-09-15T15:16:30.988Z,98759.08
2022-09-15T15:18:58.208Z,98760.02
2022-09-15T15:21:36.868Z,98754.27
2022-09-15T15:24:17.808Z,98748.62
2022-09-15T15:26:49.903Z,98753.88
2022-09-15T15:29:42.660Z,98758.70
2022-09-15T15:32:20.216Z,98766.13
2022-09-15T15:35:00.784Z,98769.66
2022-09-15T15:37:32.658Z,98764.79
2022-09-15T15:40:03.745Z,98762.83
2022-09-15T15:42:30.791Z,98771.55
2022-09-15T15:45:04.918Z,98769.67
2022-09-15T15:47:35.757Z,98770.86
2022-09-15T15:50:13.286Z,98773.65
2022-09-15T15:52:41.835Z,98775.14
2022-09-15T15:55:16.418Z,98784.27
2022-09-15T15:57:44.530Z,98787.58
2022-09-15T16:00:22.253Z,98784.52
2022-09-15T16:02:50.769Z,98781.25
2022-09-15T16:05:19.203Z,98774.77
2022-09-15T16:07:49.063Z,98777.17
2022-09-15T16:10:20.445Z,98782.03
2022-09-15T16:12:47.590Z,98782.02
2022-09-15T16:15:18.281Z,98782.81
2022-09-15T16:17:47.048Z,98779.20
2022-09-15T16:20:15.381Z,98779.20
2022-09-15T16:22:42.252Z,98776.31
2022-09-15T16:25:15.403Z,98770.11
2022-09-15T16:27:42.186Z,98767.80
2022-09-15T16:30:11.487Z,98756.81
2022-09-15T16:32:39.749Z,98750.35
2022-09-15T16:35:34.821Z,98748.31
2022-09-15T16:38:01.704Z,98755.89
2022-09-15T16:40:28.508Z,98755.92
2022-09-15T16:42:55.280Z,98764.20
2022-09-15T16:45:39.724Z,98768.55
2022-09-15T16:48:09.284Z,98769.64
2022-09-15T16:50:39.892Z,98776.80
2022-09-15T16:53:18.817Z,98778.14
2022-09-15T16:55:48.355Z,98778.79
2022-09-15T16:58:16.990Z,98774.86
2022-09-15T17:00:45.344Z,98773.45
2022-09-15T17:03:18.946Z,98776.91
2022-09-15T17:05:50.973Z,98774.98
2022-09-15T17:08:20.052Z,98767.77
2022-09-15T17:10:47.825Z,98770.73
2022-09-15T17:13:18.079Z,98770.86
2022-09-15T17:15:45.891Z,98776.58
2022-09-15T17:18:14.881Z,98778.16
2022-09-15T17:20:46.567Z,98781.23
2022-09-15T17:23:31.714Z,98786.13
2022-09-15T17:26:00.629Z,98791.86
2022-09-15T17:28:32.009Z,98804.27
2022-09-15T17:31:01.474Z,98806.27
2022-09-15T17:33:30.633Z,98813.66
2022-09-15T17:35:58.504Z,98813.41
2022-09-15T17:38:26.096Z,98814.05
2022-09-15T17:40:56.736Z,98813.54
2022-09-15T17:43:26.532Z,98808.48
2022-09-15T17:45:54.003Z,98807.91
2022-09-15T17:48:21.762Z,98804.66
2022-09-15T17:50:49.262Z,98800.48
2022-09-15T17:53:17.684Z,98801.48
2022-09-15T17:55:44.438Z,98798.65
2022-09-15T17:58:11.382Z,98796.84
2022-09-15T18:00:41.409Z,98790.80
2022-09-15T18:03:27.117Z,98790.11
2022-09-15T18:05:57.980Z,98783.46
2022-09-15T18:08:25.908Z,98776.23
2022-09-15T18:10:53.102Z,98776.30
2022-09-15T18:13:23.055Z,98775.31
2022-09-15T18:15:50.259Z,98780.13
2022-09-15T18:18:19.875Z,98779.57
2022-09-15T18:20:48.948Z,98780.77
2022-09-15T18:23:21.859Z,98777.34
2022-09-15T18:25:49.521Z,98776.51
2022-09-15T18:28:17.543Z,98774.65
2022-09-15T18:30:47.221Z,98769.02
2022-09-15T18:33:18.046Z,98763.91
2022-09-15T18:35:46.417Z,98764.51
2022-09-15T18:38:13.267Z,98764.60
2022-09-15T18:40:44.998Z,98766.77
2022-09-15T18:43:11.954Z,98764.14
2022-09-15T18:45:41.943Z,98767.36
2022-09-15T18:48:12.632Z,98761.38
2022-09-15T18:50:42.944Z,98757.77
2022-09-15T18:53:10.499Z,98760.42
2022-09-15T18:55:40.522Z,98762.86
2022-09-15T18:58:07.530Z,98759.66
2022-09-15T19:00:34.296Z,98756.94
2022-09-15T19:03:02.715Z,98760.35
2022-09-15T19:05:30.538Z,98757.44
2022-09-15T19:07:57.397Z,98762.14
2022-09-15T19:10:25.961Z,98760.09
2022-09-15T19:12:53.963Z,98760.51
2022-09-15T19:15:23.628Z,98755.71
2022-09-15T19:17:50.948Z,98758.54
2022-09-15T19:20:18.110Z,98762.38
2022-09-15T19:22:45.750Z,98755.71
2022-09-15T19:25:12.881Z,98754.40
2022-09-15T19:27:40.697Z,98746.67
2022-09-15T19:30:09.860Z,98752.33
2022-09-15T19:32:37.766Z,98743.65
2022-09-15T19:35:06.111Z,98743.52
2022-09-15T19:37:36.704Z,98734.78
2022-09-15T19:40:07.723Z,98730.59
2022-09-15T19:42:35.894Z,98729.83
2022-09-15T19:45:03.178Z,98726.57
2022-09-15T19:47:30.047Z,98723.89
2022-09-15T19:49:56.868Z,98723.21
2022-09-15T19:52:23.595Z,98719.29
2022-09-15T19:54:50.714Z,98722.65
2022-09-15T19:57:17.405Z,98717.81
2022-09-15T19:59:44.280Z,98718.16
2022-09-15T20:02:11.500Z,98718.61
2022-09-15T20:04:39.161Z,98718.71
2022-09-15T20:07:06.350Z,98719.52
2022-09-15T20:09:33.454Z,98707.35
2022-09-15T20:12:02.724Z,98704.84
2022-09-15T20:14:30.406Z,98708.30
2022-09-15T20:17:00.313Z,98703.85
2022-09-15T20:19:28.765Z,98698.27
2022-09-15T20:21:55.635Z,98703.39
2022-09-15T20:24:23.791Z,98703.16
2022-09-15T20:26:50.911Z,98696.09
2022-09-15T20:29:18.486Z,98696.09
2022-09-15T20:31:46.483Z,98699.71
2022-09-15T20:34:13.590Z,98692.55
2022-09-15T20:36:40.547Z,98694.19
2022-09-15T20:39:12.238Z,98694.80
2022-09-15T20:41:40.511Z,98691.77
2022-09-15T20:44:10.365Z,98690.73
2022-09-15T20:46:37.135Z,98686.70
2022-09-15T20:49:04.308Z,98685.10
2022-09-15T20:51:33.017Z,98679.91
2022-09-15T20:54:02.712Z,98672.88
2022-09-15T20:56:30.910Z,98669.70
2022-09-15T20:58:59.236Z,98672.90
2022-09-15T21:01:37.182Z,98671.00
2022-09-15T21:04:07.352Z,98668.67
2022-09-15T21:06:35.363Z,98667.77
2022-09-15T21:09:03.168Z,98670.33
2022-09-15T21:11:30.089Z,98670.29
2022-09-15T21:13:58.141Z,98669.83
2022-09-15T21:16:27.215Z,98662.98
2022-09-15T21:18:56.783Z,98661.80
2022-09-15T21:21:29.643Z,98657.07
2022-09-15T21:24:03.275Z,98654.61
2022-09-15T21:26:59.768Z,98652.09
2022-09-15T21:29:27.914Z,98649.33
2022-09-15T21:31:58.030Z,98649.59
2022-09-15T21:34:25.710Z,98646.19
2022-09-15T21:36:53.103Z,98643.23
2022-09-15T21:39:20.244Z,98641.96
2022-09-15T21:41:46.888Z,98640.65
2022-09-15T21:44:13.659Z,98643.31
2022-09-15T21:46:40.431Z,98643.19
2022-09-15T21:49:07.826Z,98642.20
2022-09-15T21:51:34.529Z,98644.65
2022-09-15T21:54:01.241Z,98646.45
2022-09-15T21:56:29.381Z,98647.14
2022-09-15T21:58:56.381Z,98646.41
2022-09-15T22:01:27.004Z,98648.61
2022-09-15T22:04:07.422Z,98650.92
2022-09-15T22:06:36.883Z,98641.05
2022-09-15T22:09:10.728Z,98627.83
2022-09-15T22:11:37.465Z,98627.05
2022-09-15T22:14:07.690Z,98630.86
2022-09-15T22:16:40.022Z,98627.23
2022-09-15T22:19:09.157Z,98622.02
2022-09-15T22:21:38.972Z,98616.73
2022-09-15T22:24:06.670Z,98609.86
2022-09-15T22:26:36.372Z,98604.91
2022-09-15T22:29:04.018Z,98599.95
2022-09-15T22:31:30.906Z,98606.67
2022-09-15T22:33:57.610Z,98615.21
2022-09-15T22:36:29.686Z,98623.80
2022-09-15T22:39:05.469Z,98622.77
2022-09-15T22:41:36.703Z,98618.65
2022-09-15T22:44:04.902Z,98616.80
2022-09-15T22:46:31.985Z,98609.33
2022-09-15T22:48:59.175Z,98599.36
2022-09-15T22:51:25.987Z,98597.12
2022-09-15T22:53:54.242Z,98593.02
2022-09-15T22:56:21.023Z,98589.71
2022-09-15T22:58:49.154Z,98579.98
2022-09-15T23:01:19.314Z,98572.98
2022-09-15T23:03:53.815Z,98575.70
2022-09-15T23:06:21.512Z,98576.77
2022-09-15T23:08:52.417Z,98569.28
2022-09-15T23:11:19.752Z,98575.73
2022-09-15T23:13:46.594Z,98572.16
2022-09-15T23:16:13.404Z,98569.66
2022-09-15T23:18:40.167Z,98574.01
2022-09-15T23:21:09.818Z,98570.46
2022-09-15T23:23:38.909Z,98566.80
2022-09-15T23:26:09.441Z,98561.13
2022-09-15T23:28:38.152Z,98562.45
2022-09-15T23:31:05.671Z,98555.94
2022-09-15T23:33:33.329Z,98553.47
2022-09-15T23:36:01.968Z,98553.23
2022-09-15T23:38:29.493Z,98553.12
2022-09-15T23:40:56.684Z,98541.84
2022-09-15T23:43:23.434Z,98546.34
2022-09-15T23:45:50.728Z,98543.53
2022-09-15T23:48:17.512Z,98540.29
2022-09-15T23:50:44.893Z,98539.33
2022-09-15T23:53:12.265Z,98531.86
2022-09-15T23:55:39.047Z,98527.11
2022-09-15T23:58:06.080Z,98527.48
